Moody Air Force Base
KVAD : rendu visible

Aérodrome :











RETROUVEZ-NOUS SUR...

 
LOGIN :

S'inscrire | Disclaimer

   EN    FR    IT 

 









Légende :    VFR   VFR Marginal   IFR   IFR Intensif   IFR Très Intensif
Visi : 
Plafond : 
>= 8 km
>= 3000ft
5 à 8 km
1000 à 3000 ft
1500m à 5 km
500 à 1000 ft
800 à 1500m
200 à 500 ft
< 800m
< 200 ft
Symboles :   Orages  Brouillard  Fortes neiges  Fortes précipitations  Vent > 20 kt






- Altitude de l'aérodrome : 233 ft


KVAD - Moody Air Force Base

DERNIER METAR :
  • 241156Z AUTO 17005KT 10SM BKN090 BKN110 12/09 A3005 RMK AO2 SLP178 T01180094 10120 20095 55007 $

METARs EXPIRÉS :
  • 241056Z AUTO 15003KT 10SM SCT090 11/09 A3007 RMK AO2 SLP185 T01140086 $
  • 240956Z AUTO 15004KT 10SM OVC090 12/09 A3006 RMK AO2 SLP181 T01190091 $

TAF TAF KVAD
Valide du 24 à 09h jusqu'au 25 à 15h UTC


240900Z 2409/2515 14006KT 9999 SCT050 BKN100 QNH3006INS
BECMG 2414/2415 19010G20KT 9999 BKN030 OVC090 621209 QNH2993INS
BECMG 2422/2423 20009KT 9999 OVC030 621209 QNH2991INS
BECMG 2500/2501 22009KT 8000 -SHRA OVC020 621209 520009 QNH2986INS
BECMG 2505/2506 23009KT 8000 -SHRA OVC015 621209 520009 QNG2986INS TX23/2419Z TN10/2411Z



MET'MAP, la Météo Aéronautique d'un coup d'oeil ! - Copyright ORBIFLY Décembre 2007 - Disclaimer

ORBIFLY MET'MAP TEAM :

Programmation & Développement : Alexandra Zaïnal
Sur une idée originale de : Baudouin d'Aumeries
Assistance à la programmation : Marc-Olivier Méhu
Soutien technique & logistique : Manuel Goepfert

Contact : metmap@orbifly.com




SOURCES & CREDITS :

   NOAA       Earth
Advisory